DW6345 Murcia ES current weather conditions

sailwx.info

Wind from 225 at 2 knots gusting 4

Air temperature 24.4° C
Dewpoint 15.4° C

Last reported at 2014-Sep-15 01:45 UTC.
Time now 2014-Sep-15 02:08 UTC

Location: N 37°60' W 001°06'.
View on Google Maps.

See reports from other nearby stations

  
Tides and Currents Weather Stations Pressure Air Temp Water Temp Dewpoint Dewpoint Depression Visibility Wind Speed Wind Dir Waves Ship Positions
date/time (UTC)wind fromknots sea level pressurealtimeterstation pressurevisibilityair tempwater tempwave heightnotes
2014-Sep-15 01:45 225 2 gusting 4 24.4
2014-Sep-15 01:35 225 2 gusting 4 24.4
2014-Sep-15 01:25 270 0 gusting 2 24.4
2014-Sep-15 01:15 315 0 gusting 6 24.4
2014-Sep-15 01:05 180 0 gusting 1 25.0
2014-Sep-15 00:55 180 0 gusting 1 25.0
2014-Sep-15 00:45 180 0 gusting 1 25.0
2014-Sep-15 00:35 180 25.0
2014-Sep-15 00:25 270 0 gusting 2 25.0
2014-Sep-15 00:15 225 0 gusting 4 25.0
2014-Sep-15 00:05 270 0 gusting 4 25.6
2014-Sep-14 23:55 225 0 gusting 4 25.6
2014-Sep-14 23:45 270 1 gusting 4 25.6
2014-Sep-14 23:35 270 2 gusting 5 25.6
2014-Sep-14 23:25 270 3 gusting 5 25.6
2014-Sep-14 23:15 225 2 gusting 6 25.0
2014-Sep-14 23:05 180 0 gusting 2 25.0
2014-Sep-14 22:55 152 0 gusting 2 25.0
2014-Sep-14 22:45 180 0 gusting 4 25.6
2014-Sep-14 22:35 180 0 gusting 2 26.1
2014-Sep-14 22:25 270 1 gusting 5 26.1
2014-Sep-14 22:14 281 2 gusting 6 26.1
2014-Sep-14 22:05 315 1 gusting 2 26.7
2014-Sep-14 21:55 270 1 gusting 5 26.7
2014-Sep-14 21:45 315 2 gusting 5 26.7
2014-Sep-14 21:35 225 2 gusting 4 26.7
2014-Sep-14 21:25 268 1 gusting 5 26.7
2014-Sep-14 21:15 310 0 gusting 5 26.7
2014-Sep-14 21:05 225 0 gusting 5 27.2
2014-Sep-14 20:55 249 1 gusting 5 27.2
2014-Sep-14 20:45 289 1 gusting 6 27.8
2014-Sep-14 20:35 275 1 gusting 6 27.8
2014-Sep-14 20:25 270 3 gusting 8 27.8
2014-Sep-14 20:15 256 5 gusting 8 28.3
2014-Sep-14 20:05 270 2 gusting 6 28.9
2014-Sep-14 19:55 263 2 gusting 5 28.9
2014-Sep-14 19:45 310 1 gusting 5 29.4
2014-Sep-14 19:35 039 0 gusting 4 29.4
2014-Sep-14 19:25 225 0 gusting 1 29.4
2014-Sep-14 19:15 203 0 gusting 2 29.4
2014-Sep-14 16:55 225 8 gusting 14 32.8
2014-Sep-14 16:45 193 7 gusting 14 33.3
2014-Sep-14 16:35 180 6 gusting 13 33.3
2014-Sep-14 16:25 180 7 gusting 15 33.3
2014-Sep-14 16:15 180 10 gusting 15 33.3
2014-Sep-14 16:05 211 8 gusting 14 33.9
2014-Sep-14 15:55 201 9 gusting 15 33.9
2014-Sep-14 15:45 180 8 gusting 15 33.9
2014-Sep-14 15:35 189 8 gusting 15 33.9
2014-Sep-14 15:25 143 7 gusting 14 33.9
2014-Sep-14 15:15 179 7 gusting 15 33.9
2014-Sep-14 15:05 180 8 gusting 17 33.9
2014-Sep-14 14:55 180 10 gusting 13 34.4
2014-Sep-14 14:45 180 8 gusting 17 34.4
2014-Sep-14 14:35 180 6 gusting 14 34.4
2014-Sep-14 14:25 215 4 gusting 13 34.4
2014-Sep-14 14:15 225 6 gusting 13 34.4
2014-Sep-14 14:05 215 7 gusting 13 34.4
2014-Sep-14 13:55 225 0 gusting 6 35.0
2014-Sep-14 13:45 225 2 gusting 8 34.4
2014-Sep-14 13:35 180 5 gusting 8 34.4
2014-Sep-14 13:25 225 5 gusting 7 35.0
2014-Sep-14 13:15 292 1 gusting 8 35.0
2014-Sep-14 13:05 135 5 gusting 11 35.0
2014-Sep-14 12:55 180 5 gusting 11 35.0
2014-Sep-14 12:45 270 2 gusting 5 35.0
2014-Sep-14 12:35 299 0 gusting 5 35.0
2014-Sep-14 12:25 270 0 gusting 5 35.6
2014-Sep-14 12:15 090 2 gusting 6 35.0
2014-Sep-14 12:05 270 0 gusting 2 33.9
2014-Sep-14 11:55 216 1 gusting 5 33.3
2014-Sep-14 11:45 245 2 gusting 6 33.3
2014-Sep-14 11:35 239 2 gusting 6 33.9
2014-Sep-14 11:25 277 1 gusting 4 33.3
2014-Sep-14 11:15 270 0 gusting 4 33.3
2014-Sep-14 11:05 270 1 gusting 4 32.8
2014-Sep-14 10:55 290 0 gusting 5 32.8
2014-Sep-14 10:45 270 1 gusting 5 31.7
2014-Sep-14 10:35 315 0 gusting 6 31.7
2014-Sep-14 10:25 199 0 gusting 2 32.2
2014-Sep-14 10:15 315 1 gusting 2 32.2
2014-Sep-14 10:05 090 0 gusting 4 30.6
2014-Sep-14 09:55 090 30.0
2014-Sep-14 09:45 320 1 gusting 5 29.4
2014-Sep-14 09:35 270 1 gusting 6 28.9
2014-Sep-14 09:25 354 2 gusting 4 28.9
2014-Sep-14 09:15 270 1 gusting 5 27.8
2014-Sep-14 09:05 225 2 gusting 5 27.2
2014-Sep-14 08:55 260 2 gusting 5 26.7
2014-Sep-14 08:45 270 0 gusting 5 26.1
2014-Sep-14 08:35 270 1 gusting 5 26.1
2014-Sep-14 08:25 293 2 gusting 5 26.1
2014-Sep-14 08:15 292 1 gusting 6 25.6
2014-Sep-14 08:05 315 1 gusting 4 25.6
2014-Sep-14 07:55 018 1 gusting 4 25.6
2014-Sep-14 07:45 270 1 gusting 5 25.0
2014-Sep-14 07:35 315 2 gusting 5 25.0
2014-Sep-14 07:25 315 1 gusting 4 25.0
2014-Sep-14 07:15 135 0 gusting 0 24.4
2014-Sep-14 07:05 021 23.9
2014-Sep-14 06:55 300 0 gusting 1 23.3
2014-Sep-14 06:45 315 0 gusting 2 23.3
2014-Sep-14 06:35 292 0 gusting 2 22.8
2014-Sep-14 06:25 225 0 gusting 1 22.8
2014-Sep-14 06:15 180 0 gusting 2 22.8
2014-Sep-14 06:05 315 22.8
2014-Sep-14 05:55 301 22.8
2014-Sep-14 05:45 270 0 gusting 2 22.8
2014-Sep-14 05:35 279 0 gusting 2 22.8
2014-Sep-14 05:25 270 0 gusting 2 22.8
2014-Sep-14 05:15 299 0 gusting 4 22.8
2014-Sep-14 05:05 270 2 gusting 5 23.3
2014-Sep-14 04:55 270 2 gusting 5 23.3
2014-Sep-14 04:45 270 1 gusting 5 23.3
2014-Sep-14 04:35 274 2 gusting 5 23.3
2014-Sep-14 04:25 270 3 gusting 5 23.3
2014-Sep-14 04:15 270 4 gusting 6 23.3
2014-Sep-14 04:05 270 2 gusting 5 23.3
2014-Sep-14 03:55 254 1 gusting 4 23.3
2014-Sep-14 03:45 270 0 gusting 2 23.3
2014-Sep-14 03:35 301 1 gusting 5 23.3
2014-Sep-14 03:25 266 1 gusting 4 23.3
2014-Sep-14 03:15 308 0 gusting 2 23.3
2014-Sep-14 03:05 270 1 gusting 4 23.3
2014-Sep-14 02:55 252 1 gusting 5 23.3
2014-Sep-14 02:45 270 4 gusting 5 23.3
2014-Sep-14 02:35 270 2 gusting 5 23.9
2014-Sep-14 02:25 270 1 gusting 5 23.9
2014-Sep-14 02:15 270 2 gusting 5 23.3
2014-Sep-14 02:05 315 23.3
2014-Sep-14 01:55 270 0 gusting 1 23.3
2014-Sep-14 01:45 303 0 gusting 1 23.3
2014-Sep-14 01:35 135 23.3
2014-Sep-14 01:25 090 0 gusting 2 23.3
2014-Sep-14 01:15 097 0 gusting 1 23.3
2014-Sep-14 01:05 135 23.3
2014-Sep-14 00:55 090 23.3
2014-Sep-14 00:45 135 0 gusting 2 23.3
2014-Sep-14 00:35 122 0 gusting 2 23.9
2014-Sep-14 00:25 108 0 gusting 1 23.9
2014-Sep-14 00:15 090 0 gusting 2 23.9
2014-Sep-14 00:05 090 0 gusting 2 23.9
2014-Sep-13 23:55 090 0 gusting 2 23.9
2014-Sep-13 23:45 110 0 gusting 2 23.9
2014-Sep-13 23:35 090 1 gusting 4 23.9
2014-Sep-13 23:25 270 0 gusting 2 23.9
2014-Sep-13 23:15 099 0 gusting 2 24.4
2014-Sep-13 23:05 090 0 gusting 1 24.4
2014-Sep-13 22:55 084 0 gusting 2 24.4
2014-Sep-13 22:45 045 1 gusting 2 24.4
2014-Sep-13 22:35 045 0 gusting 2 24.4
2014-Sep-13 22:25 045 0 gusting 2 24.4
2014-Sep-13 22:14 090 0 gusting 2 25.0
2014-Sep-13 22:05 135 0 gusting 1 25.0
2014-Sep-13 21:55 135 0 gusting 2 25.0
2014-Sep-13 21:45 090 0 gusting 2 25.0
2014-Sep-13 21:35 109 0 gusting 4 25.0
2014-Sep-13 21:25 067 2 gusting 6 25.6
2014-Sep-13 21:15 091 4 gusting 6 25.6
2014-Sep-13 21:05 090 2 gusting 6 25.6
2014-Sep-13 20:55 090 4 gusting 6 25.6
2014-Sep-13 20:45 113 4 gusting 8 26.1
2014-Sep-13 20:35 106 4 gusting 11 26.1
2014-Sep-13 20:25 076 5 gusting 11 26.1
2014-Sep-13 20:15 090 6 gusting 12 26.7
2014-Sep-13 20:05 090 5 gusting 11 27.2
2014-Sep-13 19:55 090 6 gusting 10 27.8
2014-Sep-13 19:45 090 5 gusting 8 27.8
2014-Sep-13 19:35 090 4 gusting 6 28.3
2014-Sep-13 19:25 090 1 gusting 7 28.3
2014-Sep-13 19:15 090 3 gusting 5 28.9
2014-Sep-13 19:05 135 0 gusting 4 29.4
2014-Sep-13 18:55 090 1 gusting 4 29.4
2014-Sep-13 18:45 180 1 gusting 5 30.0
2014-Sep-13 18:35 090 1 gusting 4 30.6
2014-Sep-13 18:25 135 2 gusting 5 30.6
2014-Sep-13 18:15 138 1 gusting 5 31.1
2014-Sep-13 18:05 180 2 gusting 5 31.7
2014-Sep-13 17:55 180 4 gusting 6 32.2
2014-Sep-13 17:45 160 2 gusting 6 32.2
2014-Sep-13 17:35 206 3 gusting 7 32.8
2014-Sep-13 17:25 171 2 gusting 7 32.8
2014-Sep-13 17:15 193 4 gusting 6 33.3
2014-Sep-13 17:05 180 4 gusting 8 33.3
2014-Sep-13 16:55 225 5 gusting 10 33.3
2014-Sep-13 16:45 180 4 gusting 12 33.3
2014-Sep-13 16:35 199 6 gusting 12 33.3
2014-Sep-13 16:25 225 5 gusting 13 33.3
2014-Sep-13 16:15 180 6 gusting 11 33.9
2014-Sep-13 16:05 186 5 gusting 13 33.9
2014-Sep-13 15:55 180 8 gusting 13 34.4
2014-Sep-13 15:45 188 5 gusting 10 34.4
2014-Sep-13 15:35 180 6 gusting 13 33.9
2014-Sep-13 15:25 180 6 gusting 13 33.9
2014-Sep-13 15:15 180 6 gusting 13 33.9
2014-Sep-13 15:05 180 5 gusting 11 33.9
2014-Sep-13 14:55 180 6 gusting 13 34.4
2014-Sep-13 14:45 180 5 gusting 13 34.4
2014-Sep-13 14:35 180 6 gusting 13 34.4
2014-Sep-13 14:25 135 5 gusting 14 34.4
2014-Sep-13 14:15 188 8 gusting 14 34.4
2014-Sep-13 14:05 180 6 gusting 11 34.4
2014-Sep-13 13:55 147 4 gusting 13 34.4
2014-Sep-13 13:45 115 7 gusting 17 33.9
2014-Sep-13 13:35 180 6 gusting 17 33.9
2014-Sep-13 13:25 225 7 gusting 13 33.9
2014-Sep-13 13:15 214 8 gusting 14 33.9
2014-Sep-13 13:05 225 6 gusting 12 33.9
2014-Sep-13 12:55 207 7 gusting 13 33.9
2014-Sep-13 12:45 193 8 gusting 13 33.9
2014-Sep-13 12:35 180 6 gusting 13 33.9
2014-Sep-13 12:25 225 7 gusting 11 34.4
2014-Sep-13 12:15 176 4 gusting 13 33.9
2014-Sep-13 12:05 180 2 gusting 8 34.4
2014-Sep-13 11:55 166 5 gusting 10 33.9
2014-Sep-13 11:45 149 3 gusting 13 33.3
2014-Sep-13 11:35 045 1 gusting 10 33.3
2014-Sep-13 11:25 164 2 gusting 6 33.3
2014-Sep-13 11:15 094 4 gusting 6 32.8
2014-Sep-13 11:05 090 4 gusting 7 32.8
2014-Sep-13 10:55 090 3 gusting 8 32.8
2014-Sep-13 10:45 090 1 gusting 6 32.8
2014-Sep-13 10:35 090 3 gusting 6 32.8
2014-Sep-13 10:25 048 1 gusting 6 32.8
2014-Sep-13 10:15 128 0 gusting 6 32.2
2014-Sep-13 10:05 090 1 gusting 5 32.2
2014-Sep-13 09:55 171 2 gusting 5 31.7
2014-Sep-13 09:45 099 1 gusting 4 31.1
2014-Sep-13 09:35 169 1 gusting 5 30.6
2014-Sep-13 09:25 045 1 gusting 5 30.6
2014-Sep-13 09:15 069 1 gusting 4 30.6
2014-Sep-13 09:05 090 1 gusting 4 30.6
2014-Sep-13 08:55 185 0 gusting 2 30.0
2014-Sep-13 08:45 174 1 gusting 2 29.4
2014-Sep-13 08:35 160 0 gusting 2 28.9
2014-Sep-13 08:25 162 1 gusting 4 28.3
2014-Sep-13 08:15 180 0 gusting 2 27.8
2014-Sep-13 08:05 180 0 gusting 5 26.7
2014-Sep-13 07:55 180 2 gusting 5 26.1
2014-Sep-13 07:45 232 2 gusting 5 25.6
2014-Sep-13 07:35 230 0 gusting 2 25.6
2014-Sep-13 07:25 223 0 gusting 4 25.0
2014-Sep-13 07:15 180 2 gusting 4 25.6
2014-Sep-13 07:05 135 1 gusting 4 25.0
2014-Sep-13 06:55 090 0 gusting 1 24.4
2014-Sep-13 06:45 056 0 gusting 2 24.4
2014-Sep-13 06:35 225 0 gusting 1 23.9
2014-Sep-13 06:25 261 0 gusting 2 23.3
2014-Sep-13 06:15 222 0 gusting 2 23.3
2014-Sep-13 06:05 225 0 gusting 1 23.3
2014-Sep-13 05:55 152 0 gusting 2 23.3
2014-Sep-13 05:45 270 23.3
2014-Sep-13 05:35 203 23.3
2014-Sep-13 05:25 315 0 gusting 2 23.3
2014-Sep-13 05:15 315 0 gusting 1 23.3
2014-Sep-13 05:05 225 23.3
2014-Sep-13 04:55 269 1 gusting 4 23.3
2014-Sep-13 04:45 270 2 gusting 5 23.3
2014-Sep-13 04:35 225 2 gusting 5 23.3
2014-Sep-13 04:25 225 2 gusting 5 23.3
2014-Sep-13 04:15 225 2 gusting 5 23.3
2014-Sep-13 04:05 180 0 gusting 2 23.3
2014-Sep-13 03:55 186 0 gusting 2 23.3
2014-Sep-13 03:45 180 0 gusting 2 23.3
2014-Sep-13 03:35 135 23.9
2014-Sep-13 03:25 283 0 gusting 1 23.9
2014-Sep-13 03:15 270 23.9
2014-Sep-13 03:05 270 0 gusting 1 23.9
2014-Sep-13 02:55 315 23.9
2014-Sep-13 02:45 303 0 gusting 0 23.9
2014-Sep-13 02:35 241 23.9
2014-Sep-13 02:25 225 23.9
2014-Sep-13 02:15 135 23.9
2014-Sep-13 02:05 045 0 gusting 1 23.9